Terminal Aerodrome Forecast
Issued by NWS

Current Version | Previous Version | Text Only | Print | Product List | Glossary On
Versions: 1 2 3 4 5 6 7 8 9 10 11 12 13 14 15 16 17 18 19 20
000
FTUS41 KPHI 271736
TAFPNE
TAF
KPNE 271736Z 2718/2818 23008KT 5SM BR OVC007
     FM272000 23008KT P6SM BKN015
     FM280300 VRB04KT 3SM BR OVC007
     FM280600 VRB04KT 1SM BR OVC003
     FM281100 VRB05KT 1SM -SHRA OVC003
     FM281400 VRB05KT 4SM BR OVC007=

USA.gov is the U.S. government's official web portal to all federal, state and local government web resources and services.